Time;durP1;ratioP1;P1;durP2;ratioP2;P2;SDS_P1;SDS_P2;PMS_P1;PMS_P2;Temp;Humidity;BMP_temperature;BMP_pressure;BME280_temperature;BME280_humidity;BME280_pressure;Samples;Min_cycle;Max_cycle;Signal;HPM_P1;HPM_P2
2021/12/01 00:00:47;;;;;;;6.57;1.60;;;;;;;-3.42;100.00;96535.88;4883697;29;20060;-67
2021/12/01 00:03:13;;;;;;;4.97;1.38;;;;;;;-3.48;100.00;96541.72;4882371;29;20053;-65
2021/12/01 00:05:39;;;;;;;6.80;1.80;;;;;;;-3.55;100.00;96539.78;4881484;29;20055;-65
2021/12/01 00:08:06;;;;;;;7.60;1.80;;;;;;;-3.61;100.00;96535.06;4911274;29;20144;-68
2021/12/01 00:10:36;;;;;;;5.88;1.63;;;;;;;-3.54;100.00;96546.75;4912693;29;20701;-66
2021/12/01 00:13:07;;;;;;;5.80;1.50;;;;;;;-3.60;100.00;96536.72;4888005;29;20075;-67
2021/12/01 00:15:33;;;;;;;7.72;1.85;;;;;;;-3.67;100.00;96529.38;4919801;29;20062;-65
2021/12/01 00:17:59;;;;;;;7.38;1.60;;;;;;;-3.77;100.00;96535.63;4930324;29;20071;-65
2021/12/01 00:20:25;;;;;;;6.68;1.85;;;;;;;-3.92;100.00;96495.63;4930225;29;20074;-66
2021/12/01 00:22:51;;;;;;;5.50;1.52;;;;;;;-3.64;100.00;96547.56;4910170;29;20502;-66
2021/12/01 00:25:22;;;;;;;5.75;1.60;;;;;;;-3.63;100.00;96554.50;4916512;29;20048;-66
2021/12/01 00:27:50;;;;;;;5.70;1.35;;;;;;;-3.79;100.00;96530.50;4916807;29;20088;-66
2021/12/01 00:30:16;;;;;;;4.43;1.30;;;;;;;-3.64;100.00;96539.66;4935783;29;20048;-66
2021/12/01 00:32:42;;;;;;;7.38;1.65;;;;;;;-3.63;100.00;96549.22;4928028;29;20533;-65
2021/12/01 00:35:09;;;;;;;5.82;1.40;;;;;;;-3.63;100.00;96548.41;4883224;29;20040;-66
2021/12/01 00:37:36;;;;;;;4.53;1.30;;;;;;;-3.59;100.00;96554.22;4882493;29;20510;-65
2021/12/01 00:40:07;;;;;;;4.57;1.30;;;;;;;-3.62;100.00;96547.41;4929734;29;20194;-65
2021/12/01 00:42:32;;;;;;;;;;;;;;;-3.60;100.00;96547.28;4914990;29;20146;-65
2021/12/01 00:45:07;;;;;;;6.22;1.70;;;;;;;-3.64;100.00;96547.56;4929734;29;20573;-66
2021/12/01 00:47:49;;;;;;;6.43;1.70;;;;;;;-3.59;100.00;96546.31;4915011;29;20451;-65
2021/12/01 00:50:36;;;;;;;6.55;2.05;;;;;;;-3.61;100.00;96546.47;4913787;29;20048;-64
2021/12/01 00:53:05;;;;;;;6.80;1.70;;;;;;;-3.60;100.00;96542.00;4912576;29;20542;-65
2021/12/01 00:55:32;;;;;;;6.63;1.52;;;;;;;-3.58;100.00;96550.59;4913701;29;20052;-64
2021/12/01 00:57:58;;;;;;;7.35;1.58;;;;;;;-3.60;100.00;96565.78;4913665;29;20067;-64
2021/12/01 01:00:25;;;;;;;6.22;1.60;;;;;;;-3.59;100.00;96554.22;4913765;29;20147;-64
2021/12/01 01:02:52;;;;;;;7.03;1.88;;;;;;;-3.60;100.00;96552.56;4914028;29;20056;-65
2021/12/01 01:05:18;;;;;;;5.60;1.48;;;;;;;-3.65;100.00;96551.19;4897687;29;20080;-65
2021/12/01 01:07:44;;;;;;;5.22;1.50;;;;;;;-3.64;100.00;96542.28;4929019;29;20052;-65
2021/12/01 01:18:36;;;;;;;6.07;1.75;;;;;;;-3.66;100.00;96551.31;4894921;29;20056;-67
2021/12/01 01:21:03;;;;;;;6.35;1.48;;;;;;;-3.61;100.00;96564.13;4895040;29;20147;-66
2021/12/01 01:23:29;;;;;;;5.85;1.40;;;;;;;-3.60;100.00;96574.53;4896626;29;20530;-67
2021/12/01 01:25:57;;;;;;;7.18;1.80;;;;;;;-3.56;100.00;96564.50;4880228;29;20052;-65
2021/12/01 01:28:22;;;;;;;8.70;1.63;;;;;;;-3.91;100.00;96513.16;4895313;29;20152;-65
2021/12/01 01:30:48;;;;;;;6.72;1.88;;;;;;;-3.66;100.00;96548.66;4879997;29;20112;-66
2021/12/01 01:33:14;;;;;;;6.55;1.90;;;;;;;-3.68;100.00;96562.03;4911475;29;20061;-68
2021/12/01 01:35:40;;;;;;;6.03;1.50;;;;;;;-3.69;100.00;96557.72;4895598;29;20060;-68
2021/12/01 01:38:06;;;;;;;8.05;1.83;;;;;;;-3.83;100.00;96520.38;4910798;29;20152;-67
2021/12/01 01:40:32;;;;;;;6.63;1.50;;;;;;;-3.65;100.00;96567.03;4865198;29;20107;-67
2021/12/01 01:42:58;;;;;;;6.30;1.67;;;;;;;-3.65;100.00;96561.75;4898731;29;20134;-65
2021/12/01 01:45:23;;;;;;;5.75;1.83;;;;;;;-3.64;100.00;96568.69;4898054;29;20600;-66
2021/12/01 01:48:00;;;;;;;7.28;1.50;;;;;;;-3.74;100.00;96552.00;4913585;29;20147;-65
2021/12/01 01:50:38;;;;;;;9.60;1.70;;;;;;;-3.76;100.00;96559.25;4914699;29;20080;-66
2021/12/01 01:53:08;;;;;;;7.25;1.98;;;;;;;-3.63;100.00;96580.06;4897577;29;20052;-66
2021/12/01 01:55:35;;;;;;;7.65;1.95;;;;;;;-3.63;100.00;96569.50;4900687;29;20051;-68
2021/12/01 01:58:02;;;;;;;9.82;2.53;;;;;;;-3.68;100.00;96577.03;4900995;29;20060;-64
2021/12/01 02:00:29;;;;;;;8.35;2.10;;;;;;;-3.63;100.00;96586.19;4901205;29;20136;-66
2021/12/01 02:02:57;;;;;;;6.68;1.85;;;;;;;-3.67;100.00;96595.34;4900776;29;20520;-65
2021/12/01 02:05:23;;;;;;;7.47;2.00;;;;;;;-3.69;100.00;96578.84;4917334;29;20063;-64
2021/12/01 02:07:51;;;;;;;8.77;2.55;;;;;;;-3.84;100.00;96545.88;4932480;29;20048;-65
2021/12/01 02:10:17;;;;;;;12.10;4.60;;;;;;;-3.67;100.00;96584.78;4916685;29;20044;-65
2021/12/01 02:12:42;;;;;;;8.95;2.92;;;;;;;-3.91;100.00;96544.81;4915845;29;20106;-66
2021/12/01 02:15:09;;;;;;;18.90;2.78;;;;;;;-3.67;100.00;96584.78;4917910;29;20202;-65
2021/12/01 02:17:35;;;;;;;6.70;2.10;;;;;;;-3.75;100.00;96595.22;4916510;29;20372;-66
2021/12/01 02:20:03;;;;;;;6.07;1.58;;;;;;;-3.71;100.00;96604.53;4916334;29;20063;-65
2021/12/01 02:22:33;;;;;;;6.65;2.00;;;;;;;-3.72;100.00;96591.47;4914118;29;20139;-63
2021/12/01 02:24:59;;;;;;;6.95;2.25;;;;;;;-3.74;100.00;96583.69;4917592;29;20502;-65
2021/12/01 02:27:25;;;;;;;8.00;1.90;;;;;;;-3.71;100.00;96604.53;4900575;29;20134;-67
2021/12/01 02:29:51;;;;;;;5.80;1.50;;;;;;;-3.75;100.00;96597.84;4885376;29;20056;-65
2021/12/01 02:32:17;;;;;;;7.13;1.75;;;;;;;-3.94;100.00;96558.28;4908762;29;20060;-67
2021/12/01 02:34:44;;;;;;;7.05;1.75;;;;;;;-3.75;100.00;96595.22;4897492;29;20116;-67
2021/12/01 02:37:10;;;;;;;5.15;1.50;;;;;;;-3.79;100.00;96587.72;4898219;29;20053;-67
2021/12/01 02:39:38;;;;;;;7.15;1.67;;;;;;;-3.75;100.00;96597.84;4898638;29;20063;-65
2021/12/01 02:42:07;;;;;;;6.63;1.85;;;;;;;-3.85;100.00;96589.09;4902206;29;20143;-67
2021/12/01 02:44:34;;;;;;;7.22;1.77;;;;;;;-3.84;100.00;96601.31;4884926;29;20157;-65
2021/12/01 02:47:00;;;;;;;5.53;1.27;;;;;;;-3.74;100.00;96604.78;4900582;29;20054;-67
2021/12/01 02:49:28;;;;;;;5.82;1.55;;;;;;;-3.73;100.00;96605.63;4916433;29;20060;-66
2021/12/01 02:51:55;;;;;;;5.80;1.50;;;;;;;-3.75;100.00;96618.97;4915945;29;20059;-64
2021/12/01 02:54:23;;;;;;;5.40;1.33;;;;;;;-3.70;100.00;96608.00;4885122;29;20051;-66
2021/12/01 02:56:50;;;;;;;5.82;1.25;;;;;;;-3.71;100.00;96607.16;4917498;29;20068;-66
2021/12/01 02:59:16;;;;;;;9.27;1.42;;;;;;;-3.72;100.00;96607.31;4917381;29;20177;-67
2021/12/01 03:01:44;;;;;;;5.75;1.88;;;;;;;-3.73;100.00;96611.75;4885482;29;20096;-64
2021/12/01 03:04:10;;;;;;;6.32;1.60;;;;;;;-3.94;100.00;96582.84;4918414;29;20059;-66
2021/12/01 03:06:37;;;;;;;7.57;1.65;;;;;;;-3.79;100.00;96606.19;4917522;29;20059;-65
2021/12/01 03:09:05;;;;;;;6.65;1.73;;;;;;;-3.83;100.00;96612.72;4919095;29;20067;-66
2021/12/01 03:11:30;;;;;;;6.78;1.88;;;;;;;-3.93;100.00;96599.50;4916755;29;20139;-68
2021/12/01 03:13:56;;;;;;;7.78;1.60;;;;;;;-3.85;100.00;96617.28;4900072;29;20143;-68
2021/12/01 03:16:23;;;;;;;6.90;1.58;;;;;;;-4.03;100.00;96582.81;4916305;29;20473;-67
2021/12/01 03:18:49;;;;;;;6.97;1.60;;;;;;;-4.04;100.00;96592.53;4933484;29;20072;-66
2021/12/01 03:21:15;;;;;;;7.22;1.85;;;;;;;-3.86;100.00;96616.47;4901392;29;20052;-66
2021/12/01 03:23:42;;;;;;;8.50;1.70;;;;;;;-4.18;100.00;96570.03;4916415;29;20096;-66
2021/12/01 03:26:08;;;;;;;7.82;1.55;;;;;;;-3.85;100.00;96620.75;4900410;29;20056;-65
2021/12/01 03:28:34;;;;;;;7.05;1.83;;;;;;;-3.89;100.00;96611.44;4932022;29;20056;-67
2021/12/01 03:31:00;;;;;;;5.80;1.60;;;;;;;-3.89;100.00;96617.56;4899499;29;20224;-67
2021/12/01 03:33:26;;;;;;;8.35;1.63;;;;;;;-3.86;100.00;96621.72;4915593;29;20147;-67
2021/12/01 03:35:53;;;;;;;6.40;1.75;;;;;;;-4.04;100.00;96586.44;4899546;29;20067;-67
2021/12/01 03:38:21;;;;;;;14.70;2.30;;;;;;;-4.23;100.00;96566.97;4899347;29;20063;-65
2021/12/01 03:40:48;;;;;;;4.85;1.40;;;;;;;-3.88;100.00;96631.56;4916140;29;20064;-67
2021/12/01 03:43:14;;;;;;;8.85;1.73;;;;;;;-3.90;100.00;96615.06;4914947;29;20052;-66
2021/12/01 03:45:40;;;;;;;8.52;2.13;;;;;;;-3.97;100.00;96608.66;4915479;29;20203;-67
2021/12/01 03:48:06;;;;;;;8.00;1.55;;;;;;;-3.96;100.00;96612.97;4868128;29;20063;-66
2021/12/01 03:50:32;;;;;;;5.35;1.58;;;;;;;-4.00;100.00;96603.66;4883772;29;20051;-67
2021/12/01 03:52:58;;;;;;;7.40;2.10;;;;;;;-4.24;100.00;96575.84;4899489;29;20475;-67
2021/12/01 03:55:24;;;;;;;5.60;1.50;;;;;;;-4.03;100.00;96619.75;4899092;29;20044;-70
2021/12/01 03:57:50;;;;;;;10.90;2.45;;;;;;;-3.98;100.00;96628.94;4913902;29;20112;-66
2021/12/01 04:00:17;;;;;;;7.70;1.75;;;;;;;-3.96;100.00;96631.44;4914199;29;20553;-68
2021/12/01 04:02:45;;;;;;;7.40;2.42;;;;;;;-4.22;100.00;96589.72;4930206;29;20064;-68
2021/12/01 04:05:11;;;;;;;7.35;1.77;;;;;;;-4.01;100.00;96645.03;4854104;29;20470;-67
2021/12/01 04:07:38;;;;;;;6.75;1.80;;;;;;;-4.03;100.00;96646.13;4911517;29;20557;-67
2021/12/01 04:10:06;;;;;;;6.38;1.58;;;;;;;-4.02;100.00;96647.78;4901263;29;20056;-67
2021/12/01 04:12:33;;;;;;;6.30;1.75;;;;;;;-4.13;100.00;96646.13;4914537;29;20492;-67
2021/12/01 04:14:59;;;;;;;5.40;1.65;;;;;;;-4.07;100.00;96655.28;4894767;29;20066;-70
2021/12/01 04:17:25;;;;;;;8.05;1.75;;;;;;;-4.08;100.00;96653.63;4911028;29;20056;-67
2021/12/01 04:19:50;;;;;;;7.82;2.28;;;;;;;-4.12;100.00;96638.06;4873955;29;20055;-66
2021/12/01 04:22:16;;;;;;;7.32;2.33;;;;;;;-4.15;100.00;96654.16;4885382;29;20150;-66
2021/12/01 04:24:42;;;;;;;7.65;2.17;;;;;;;-4.08;100.00;96653.63;4880081;29;20462;-72
2021/12/01 04:27:09;;;;;;;8.32;2.30;;;;;;;-4.28;100.00;96637.72;4909446;29;20458;-67
2021/12/01 04:29:35;;;;;;;7.10;1.98;;;;;;;-4.35;100.00;96628.69;4923258;29;20047;-67
2021/12/01 04:32:00;;;;;;;7.65;2.30;;;;;;;-4.16;100.00;96660.41;4871559;29;20055;-68
2021/12/01 04:34:27;;;;;;;8.68;2.35;;;;;;;-4.17;100.00;96650.84;4909850;29;20471;-65
2021/12/01 04:36:53;;;;;;;8.27;2.30;;;;;;;-4.34;100.00;96633.00;4911644;29;20150;-66
2021/12/01 04:39:19;;;;;;;9.07;2.33;;;;;;;-4.41;100.00;96631.88;4912474;29;20176;-66
2021/12/01 04:41:56;;;;;;;9.50;2.10;;;;;;;-4.26;100.00;96650.78;4915434;29;20200;-67
2021/12/01 04:44:24;;;;;;;12.35;2.60;;;;;;;-4.27;100.00;96647.31;4883698;29;20410;-66
2021/12/01 04:46:54;;;;;;;7.75;2.33;;;;;;;-4.24;100.00;96652.34;4898824;29;20052;-66
2021/12/01 04:49:21;;;;;;;6.75;1.85;;;;;;;-4.25;100.00;96653.28;4910722;29;20060;-66
2021/12/01 04:51:54;;;;;;;6.35;1.83;;;;;;;-4.20;100.00;96659.00;4894814;29;20056;-66
2021/12/01 04:54:20;;;;;;;8.98;2.38;;;;;;;-4.18;100.00;96659.69;4902364;29;20056;-66
2021/12/01 04:56:47;;;;;;;6.68;1.80;;;;;;;-4.18;100.00;96672.88;4929749;29;20044;-65
2021/12/01 04:59:13;;;;;;;9.63;2.47;;;;;;;-4.17;100.00;96674.56;4948956;29;20476;-66
2021/12/01 05:01:41;;;;;;;8.38;2.60;;;;;;;-4.38;100.00;96642.16;4902811;29;20088;-66
2021/12/01 05:04:07;;;;;;;10.50;3.03;;;;;;;-4.40;100.00;96644.06;4927490;29;20102;-66
2021/12/01 05:06:33;;;;;;;7.72;2.25;;;;;;;-4.24;100.00;96683.97;4932973;29;20055;-65
2021/12/01 05:08:59;;;;;;;7.88;2.13;;;;;;;-4.38;100.00;96664.06;4909324;29;20063;-66
2021/12/01 05:11:25;;;;;;;14.98;2.60;;;;;;;-4.28;100.00;96682.53;4913437;29;20406;-66
2021/12/01 05:13:52;;;;;;;6.63;1.80;;;;;;;-4.28;100.00;96684.34;4927022;29;20074;-66
2021/12/01 05:16:18;;;;;;;8.25;2.20;;;;;;;-4.23;100.00;96693.56;4933608;29;20386;-68
2021/12/01 05:18:44;;;;;;;7.47;2.30;;;;;;;-4.30;100.00;96670.47;4948464;29;20063;-66
2021/12/01 05:21:10;;;;;;;8.85;2.10;;;;;;;-4.28;100.00;96689.63;4916559;29;20083;-66
2021/12/01 05:23:35;;;;;;;6.38;1.92;;;;;;;-4.20;100.00;96697.72;4935458;29;20052;-66
2021/12/01 05:26:02;;;;;;;7.93;2.60;;;;;;;-4.53;100.00;96654.00;4882173;29;20068;-66
2021/12/01 05:28:28;;;;;;;6.68;2.08;;;;;;;-4.21;100.00;96702.16;4912426;29;20147;-66
2021/12/01 05:30:55;;;;;;;7.43;2.28;;;;;;;-4.23;100.00;96701.47;4866371;29;20445;-67
2021/12/01 05:33:21;;;;;;;21.95;2.40;;;;;;;-4.50;100.00;96653.72;4880785;29;20052;-66
2021/12/01 05:35:47;;;;;;;9.60;2.30;;;;;;;-4.20;100.00;96698.56;4897048;29;20390;-66
2021/12/01 05:38:14;;;;;;;7.07;2.05;;;;;;;-4.15;100.00;96711.34;4897593;29;20060;-66
2021/12/01 05:40:40;;;;;;;7.65;2.13;;;;;;;-4.36;100.00;96666.56;4912393;29;20466;-66
2021/12/01 05:43:05;;;;;;;6.38;1.58;;;;;;;-4.21;99.88;96702.16;4914601;29;20079;-68
2021/12/01 05:45:31;;;;;;;8.63;2.17;;;;;;;-4.17;100.00;96729.09;4923201;29;20266;-67
2021/12/01 05:47:57;;;;;;;7.88;2.60;;;;;;;-4.16;99.99;96715.78;4931545;29;20477;-66
2021/12/01 05:50:23;;;;;;;8.15;2.40;;;;;;;-4.20;100.00;96717.03;4932055;29;20064;-65
2021/12/01 05:52:49;;;;;;;8.35;2.30;;;;;;;-4.40;99.52;96680.97;4926728;29;20110;-66
2021/12/01 05:55:15;;;;;;;6.82;2.30;;;;;;;-4.20;99.43;96730.22;4908854;29;20417;-66
2021/12/01 05:57:41;;;;;;;7.97;1.98;;;;;;;-4.31;100.00;96706.56;4879314;29;20057;-65
2021/12/01 06:00:11;;;;;;;10.02;2.40;;;;;;;-4.20;100.00;96724.94;4908284;29;20074;-65
2021/12/01 06:02:37;;;;;;;7.82;2.30;;;;;;;-4.35;97.87;96705.16;4913245;29;20418;-66
2021/12/01 06:05:04;;;;;;;8.50;2.63;;;;;;;-4.18;99.42;96730.91;4879161;29;20188;-67
2021/12/01 06:07:30;;;;;;;15.00;3.50;;;;;;;-4.19;99.62;96742.41;4912136;29;20353;-66
2021/12/01 06:10:00;;;;;;;8.13;2.78;;;;;;;-4.40;99.64;96709.97;4917132;29;20506;-70
2021/12/01 06:12:26;;;;;;;13.25;2.70;;;;;;;-4.22;99.48;96747.97;4944013;29;20051;-72
2021/12/01 06:14:53;;;;;;;8.30;2.30;;;;;;;-4.18;100.00;96753.81;4897793;29;20075;-67
2021/12/01 06:17:18;;;;;;;9.40;2.55;;;;;;;-4.32;100.00;96714.59;4896668;29;20444;-67
2021/12/01 06:19:45;;;;;;;8.68;2.47;;;;;;;-4.17;99.86;96748.41;4917023;29;20135;-69
2021/12/01 06:22:10;;;;;;;7.40;2.40;;;;;;;-4.18;100.00;96754.63;4909824;29;20067;-73
2021/12/01 06:24:36;;;;;;;7.45;2.17;;;;;;;-4.13;100.00;96762.19;4877786;29;20044;-68
2021/12/01 06:27:04;;;;;;;8.15;2.30;;;;;;;-4.19;100.00;96752.97;4866646;29;20071;-68
2021/12/01 06:29:29;;;;;;;9.88;2.55;;;;;;;-4.14;100.00;96748.13;4905995;29;20044;-69
2021/12/01 06:31:55;;;;;;;7.32;2.22;;;;;;;-4.12;100.00;96758.56;4878614;29;20399;-66
2021/12/01 06:34:21;;;;;;;9.13;2.38;;;;;;;-4.36;100.00;96724.56;4893212;29;20482;-67
2021/12/01 06:36:47;;;;;;;7.57;2.50;;;;;;;-4.09;100.00;96762.75;4864534;29;20078;-67
2021/12/01 06:39:13;;;;;;;12.30;2.47;;;;;;;-4.49;100.00;96708.97;4910331;29;20052;-68
2021/12/01 06:41:38;;;;;;;7.80;2.30;;;;;;;-4.16;100.00;96752.72;4890366;29;20063;-68
2021/12/01 06:44:05;;;;;;;13.25;2.83;;;;;;;-4.15;100.00;96753.53;4916459;29;20059;-66
2021/12/01 06:46:31;;;;;;;8.55;2.55;;;;;;;-4.12;100.00;96761.19;4904428;29;20090;-70
2021/12/01 06:48:59;;;;;;;9.20;2.60;;;;;;;-4.12;99.04;96756.75;4893618;29;20059;-67
2021/12/01 06:51:25;;;;;;;8.68;2.22;;;;;;;-4.06;99.98;96778.28;4898737;29;20096;-70
2021/12/01 06:53:51;;;;;;;7.20;2.20;;;;;;;-4.08;98.89;96764.41;4898114;29;20184;-67
2021/12/01 06:56:19;;;;;;;8.45;1.98;;;;;;;-4.07;98.54;96776.63;4930811;29;20868;-70
2021/12/01 06:58:45;;;;;;;9.32;2.03;;;;;;;-3.97;98.20;96780.16;4916005;29;20052;-65
2021/12/01 07:01:12;;;;;;;8.98;2.20;;;;;;;-3.98;98.01;96783.75;4929836;29;20090;-69
2021/12/01 07:03:38;;;;;;;9.02;3.30;;;;;;;-4.00;98.77;96783.88;4886939;29;20071;-68
2021/12/01 07:06:04;;;;;;;8.48;3.03;;;;;;;-4.02;98.17;96790.25;4898742;29;20147;-66
2021/12/01 07:08:30;;;;;;;7.47;1.80;;;;;;;-4.01;99.49;96791.94;4872740;29;20505;-67
2021/12/01 07:10:57;;;;;;;7.10;2.20;;;;;;;-4.17;98.62;96766.88;4899101;29;20513;-66
2021/12/01 07:13:23;;;;;;;8.75;2.50;;;;;;;-3.93;99.35;96794.75;4887019;29;20131;-65
2021/12/01 07:15:49;;;;;;;7.00;2.30;;;;;;;-3.96;99.82;96795.00;4889004;29;20079;-66
2021/12/01 07:18:15;;;;;;;9.75;2.70;;;;;;;-3.88;99.87;96803.94;4912403;29;20098;-65
2021/12/01 07:20:45;;;;;;;12.80;2.50;;;;;;;-4.13;99.92;96752.47;4902682;29;20063;-67
2021/12/01 07:23:12;;;;;;;6.97;2.20;;;;;;;-3.94;98.53;96782.53;4867366;29;20088;-66
2021/12/01 07:25:38;;;;;;;7.00;2.00;;;;;;;-3.88;98.55;96793.41;4887518;29;20048;-66
2021/12/01 07:28:04;;;;;;;7.60;2.13;;;;;;;-3.78;96.61;96819.81;4915156;29;20060;-67
2021/12/01 07:30:29;;;;;;;7.00;2.20;;;;;;;-3.92;94.62;96785.84;4865806;29;20052;-66
2021/12/01 07:32:55;;;;;;;7.53;2.28;;;;;;;-3.65;94.74;96832.81;4888518;29;20072;-70
2021/12/01 07:35:21;;;;;;;9.13;2.42;;;;;;;-3.69;92.75;96829.59;4895427;29;20141;-65
2021/12/01 07:37:49;;;;;;;7.57;2.15;;;;;;;-3.59;92.55;96836.69;4891837;29;20056;-65
2021/12/01 07:40:15;;;;;;;7.43;2.03;;;;;;;-3.54;92.64;96826.59;4928055;29;20060;-64
2021/12/01 07:42:41;;;;;;;7.95;2.50;;;;;;;-3.61;92.15;96828.94;4901070;29;20529;-64
2021/12/01 07:45:08;;;;;;;7.78;2.33;;;;;;;-3.51;91.80;96826.31;4882287;29;20055;-65
2021/12/01 07:47:34;;;;;;;7.80;2.25;;;;;;;-3.51;91.24;96842.16;4912741;29;20055;-68
2021/12/01 07:50:00;;;;;;;8.27;2.72;;;;;;;-3.50;91.20;96841.19;4868548;29;20048;-65
2021/12/01 07:52:26;;;;;;;8.68;2.25;;;;;;;-3.52;92.07;96843.13;4895068;29;20103;-67
2021/12/01 07:54:51;;;;;;;7.50;2.50;;;;;;;-3.61;91.81;96846.56;4867382;29;20052;-66
2021/12/01 07:57:18;;;;;;;7.78;2.10;;;;;;;-3.63;92.35;96839.59;4911668;29;20055;-66
2021/12/01 07:59:43;;;;;;;8.18;2.45;;;;;;;-3.58;93.02;96851.56;4922873;29;20151;-65
2021/12/01 08:02:09;;;;;;;9.15;2.03;;;;;;;-3.66;94.90;96850.44;4895975;29;20171;-67
2021/12/01 08:04:35;;;;;;;7.25;2.47;;;;;;;-3.64;94.27;96848.50;4929043;29;20059;-67
2021/12/01 08:07:01;;;;;;;8.93;3.15;;;;;;;-3.64;94.22;96848.50;4875871;29;20087;-66
2021/12/01 08:09:27;;;;;;;7.30;2.20;;;;;;;-3.64;94.12;96859.06;4911531;29;20498;-66
2021/12/01 08:11:54;;;;;;;7.10;2.38;;;;;;;-3.68;95.13;96864.75;4896265;29;20063;-68
2021/12/01 08:14:20;;;;;;;11.52;4.00;;;;;;;-3.91;96.14;96830.59;4890119;29;20450;-67
2021/12/01 08:16:46;;;;;;;12.23;2.88;;;;;;;-3.74;97.08;96863.44;4913560;29;20150;-67
2021/12/01 08:19:12;;;;;;;9.60;2.55;;;;;;;-3.72;97.43;96861.53;4895265;29;20079;-69
2021/12/01 08:21:38;;;;;;;7.25;2.17;;;;;;;-3.61;97.80;96867.69;4872883;29;20111;-71
2021/12/01 08:24:04;;;;;;;8.63;2.42;;;;;;;-3.68;97.65;96862.94;4888747;29;20139;-69
2021/12/01 08:26:30;;;;;;;10.23;2.45;;;;;;;-3.73;99.45;96862.50;4889355;29;20689;-68
2021/12/01 08:28:56;;;;;;;7.43;2.22;;;;;;;-3.72;97.56;96866.81;4916138;29;20060;-66
2021/12/01 08:31:23;;;;;;;9.52;2.42;;;;;;;-3.71;98.40;96855.28;4931507;29;20469;-68
2021/12/01 08:33:49;;;;;;;11.85;2.50;;;;;;;-3.76;98.95;96848.72;4898494;29;20107;-66
2021/12/01 08:36:16;;;;;;;9.82;3.30;;;;;;;-3.68;98.65;96873.50;4932048;29;20048;-66
2021/12/01 08:38:42;;;;;;;8.00;2.80;;;;;;;-3.81;98.88;96840.34;4920101;29;20127;-65
2021/12/01 08:41:08;;;;;;;8.63;2.50;;;;;;;-3.64;98.84;96880.19;4914865;29;20104;-66
2021/12/01 08:43:35;;;;;;;10.00;3.03;;;;;;;-3.79;99.87;96864.81;4912040;29;21007;-66
2021/12/01 08:46:02;;;;;;;9.20;2.92;;;;;;;-4.00;100.00;96830.53;4913811;29;20479;-72
2021/12/01 08:48:28;;;;;;;10.13;3.08;;;;;;;-3.97;100.00;96846.13;4910817;29;20060;-67
2021/12/01 08:50:56;;;;;;;9.43;2.95;;;;;;;-3.97;100.00;96835.56;4910986;29;20092;-67
2021/12/01 08:53:23;;;;;;;10.60;3.15;;;;;;;-3.77;100.00;96882.19;4904276;29;20454;-67
2021/12/01 08:55:49;;;;;;;9.75;3.30;;;;;;;-3.79;100.00;96885.94;4911271;29;20195;-69
2021/12/01 08:58:15;;;;;;;8.77;3.13;;;;;;;-3.70;100.00;96885.13;4903684;29;20136;-67
2021/12/01 09:00:46;;;;;;;9.15;3.42;;;;;;;-3.81;100.00;96882.56;4911292;29;20059;-67
2021/12/01 09:03:18;;;;;;;9.23;4.00;;;;;;;-3.84;100.00;96872.28;4910133;29;20481;-67
2021/12/01 09:05:45;;;;;;;10.25;2.92;;;;;;;-3.81;100.00;96866.75;4912745;29;20146;-67
2021/12/01 09:08:12;;;;;;;8.43;2.90;;;;;;;-3.80;100.00;96882.47;4911830;29;20075;-68
2021/12/01 09:10:38;;;;;;;13.30;3.58;;;;;;;-3.76;100.00;96893.59;4908312;29;20162;-68
2021/12/01 09:13:05;;;;;;;11.70;3.20;;;;;;;-3.92;100.00;96880.84;4895718;29;20052;-69
2021/12/01 09:15:33;;;;;;;11.75;3.63;;;;;;;-3.90;100.00;96889.47;4928904;29;20070;-67
2021/12/01 09:17:59;;;;;;;11.00;3.13;;;;;;;-3.82;100.00;96897.59;4930342;29;20125;-69
2021/12/01 09:20:26;;;;;;;7.97;2.47;;;;;;;-3.79;100.00;96902.59;4914699;29;20059;-69
2021/12/01 09:22:54;;;;;;;11.88;3.15;;;;;;;-3.79;100.00;96897.31;4928190;29;20146;-68
2021/12/01 09:25:20;;;;;;;9.20;3.33;;;;;;;-3.78;100.00;96892.88;4897848;29;20060;-69
2021/12/01 09:27:47;;;;;;;11.40;2.90;;;;;;;-3.66;99.70;96902.38;4913536;29;20171;-69
2021/12/01 09:30:15;;;;;;;8.27;2.65;;;;;;;-3.75;99.16;96890.81;4913591;29;20506;-70
2021/12/01 09:32:41;;;;;;;11.10;3.15;;;;;;;-3.56;100.00;96907.72;4913860;29;20185;-69
2021/12/01 09:35:09;;;;;;;8.38;2.60;;;;;;;-3.78;100.00;96906.91;4909837;29;20507;-69
2021/12/01 09:37:35;;;;;;;11.98;3.80;;;;;;;-3.82;100.00;96908.13;4925796;29;20057;-69
2021/12/01 09:40:04;;;;;;;11.65;3.42;;;;;;;-3.80;100.00;96900.94;4894556;29;20085;-68
2021/12/01 09:42:30;;;;;;;9.57;2.15;;;;;;;-3.78;100.00;96906.91;4863539;29;20056;-69
2021/12/01 09:44:57;;;;;;;9.27;2.95;;;;;;;-4.09;100.00;96857.72;4895018;29;20056;-68
2021/12/01 09:47:24;;;;;;;10.07;2.97;;;;;;;-3.79;100.00;96892.03;4895828;29;20056;-69
2021/12/01 09:49:51;;;;;;;9.55;2.67;;;;;;;-3.73;100.00;96872.19;4894196;29;20059;-69
2021/12/01 09:52:18;;;;;;;12.52;3.97;;;;;;;-3.31;100.00;96923.13;4878876;29;20069;-70
2021/12/01 09:54:44;;;;;;;8.63;2.58;;;;;;;-3.25;100.00;96927.91;4910075;29;20087;-70
2021/12/01 09:57:13;;;;;;;10.32;2.95;;;;;;;-3.65;98.72;96928.66;4894252;29;20074;-69
2021/12/01 09:59:41;;;;;;;9.45;2.65;;;;;;;-3.59;99.22;96939.66;4894513;29;20079;-69
2021/12/01 10:02:08;;;;;;;8.77;2.20;;;;;;;-3.44;99.18;96928.66;4896598;29;20060;-68
2021/12/01 10:04:34;;;;;;;7.80;2.28;;;;;;;-3.55;97.11;96941.06;4912790;29;20060;-69
2021/12/01 10:07:20;;;;;;;7.82;2.25;;;;;;;-3.48;97.44;96936.94;4881446;29;20524;-69
2021/12/01 10:09:53;;;;;;;6.75;2.15;;;;;;;-3.52;97.20;96935.53;4912949;29;20062;-68
2021/12/01 10:12:19;;;;;;;13.18;3.05;;;;;;;-3.90;98.85;96907.94;4896770;29;20136;-69
2021/12/01 10:14:46;;;;;;;8.85;2.80;;;;;;;-3.66;100.00;96934.91;4913111;29;20062;-69
2021/12/01 10:17:12;;;;;;;8.57;2.22;;;;;;;-3.68;100.00;96928.91;4918482;29;20146;-69
2021/12/01 10:19:38;;;;;;;8.00;2.38;;;;;;;-3.60;100.00;96922.16;4901099;29;20159;-69
2021/12/01 10:22:09;;;;;;;9.60;2.80;;;;;;;-3.70;100.00;96927.38;4900903;29;20119;-69
2021/12/01 10:24:36;;;;;;;9.82;3.30;;;;;;;-3.83;100.00;96926.75;4916749;29;20052;-69
2021/12/01 10:27:08;;;;;;;15.65;2.70;;;;;;;-3.97;100.00;96904.16;4901145;29;20055;-69
2021/12/01 10:29:41;;;;;;;10.07;2.60;;;;;;;-3.79;100.00;96944.00;4901192;29;20064;-69
2021/12/01 10:32:07;;;;;;;8.75;2.75;;;;;;;-4.05;100.00;96917.16;4913053;29;20071;-69
2021/12/01 10:34:35;;;;;;;10.02;3.00;;;;;;;-4.07;100.00;96908.53;4900756;29;20175;-69
2021/12/01 10:37:28;;;;;;;9.63;2.92;;;;;;;-3.86;100.00;96933.13;4900578;29;20549;-69
2021/12/01 10:40:10;;;;;;;7.35;2.55;;;;;;;-3.74;99.85;96934.72;4931625;29;20055;-69
2021/12/01 10:42:52;;;;;;;9.38;2.88;;;;;;;-3.72;97.10;96946.00;4884242;29;20138;-69
2021/12/01 10:45:20;;;;;;;8.50;4.10;;;;;;;-3.98;92.74;96903.31;4900432;29;20048;-69
2021/12/01 10:47:48;;;;;;;7.65;2.45;;;;;;;-3.51;93.77;96953.03;4916266;29;20064;-69
2021/12/01 10:50:16;;;;;;;7.53;2.20;;;;;;;-3.67;91.32;96950.88;4884588;29;20163;-68
2021/12/01 10:52:50;;;;;;;8.43;2.30;;;;;;;-3.53;92.38;96941.78;4896206;29;20071;-69
2021/12/01 10:55:16;;;;;;;6.75;1.65;;;;;;;-3.53;91.76;96949.72;4896986;29;20048;-68
2021/12/01 10:57:44;;;;;;;8.90;3.25;;;;;;;-3.50;90.46;96954.75;4898482;29;20067;-69
2021/12/01 11:00:21;;;;;;;6.85;2.20;;;;;;;-3.66;89.63;96939.34;4912486;29;20055;-69
2021/12/01 11:02:47;;;;;;;5.85;1.65;;;;;;;-3.53;90.08;96963.75;4897072;29;20084;-69
2021/12/01 11:05:35;;;;;;;13.32;5.32;;;;;;;-3.54;89.17;96958.59;4881033;29;20498;-68
2021/12/01 11:08:13;;;;;;;7.63;2.03;;;;;;;-3.67;86.97;96956.16;4912648;29;20056;-68
2021/12/01 11:10:39;;;;;;;6.78;2.10;;;;;;;-3.63;87.97;96961.03;4902435;29;20502;-68
2021/12/01 11:13:05;;;;;;;9.60;2.17;;;;;;;-3.59;87.18;96955.50;4884235;29;20058;-69
2021/12/01 11:15:40;;;;;;;7.55;2.40;;;;;;;-3.64;86.69;96959.38;4930864;29;20056;-69
2021/12/01 11:18:07;;;;;;;8.65;2.90;;;;;;;-3.70;87.38;96944.03;4931582;29;20534;-69
2021/12/01 11:20:42;;;;;;;7.50;1.80;;;;;;;-3.73;88.32;96954.03;4914712;29;20090;-69
2021/12/01 11:23:11;;;;;;;5.88;1.83;;;;;;;-3.70;88.50;96954.59;4869044;29;20494;-69
2021/12/01 11:25:38;;;;;;;10.20;2.10;;;;;;;-3.70;88.88;96948.50;4915212;29;20477;-69
2021/12/01 11:28:05;;;;;;;9.02;2.13;;;;;;;-3.70;88.33;96959.88;4914242;29;20067;-69
2021/12/01 11:30:31;;;;;;;6.75;1.95;;;;;;;-3.72;89.49;96967.09;4914553;29;20112;-69
2021/12/01 11:32:57;;;;;;;7.22;2.25;;;;;;;-3.86;88.22;96946.31;4916542;29;20056;-68
2021/12/01 11:35:23;;;;;;;9.20;3.10;;;;;;;-3.76;88.32;96963.06;4868199;29;20504;-69